sensor_id;sensor_type;location;lat;lon;timestamp;pressure;altitude;pressure_sealevel;temperature;humidity
31681;BME280;18281;51.364;9.566;2024-03-02T00:00:22;98833.09;;;3.50;100.00
31681;BME280;18281;51.364;9.566;2024-03-02T00:02:49;98834.94;;;3.48;100.00
31681;BME280;18281;51.364;9.566;2024-03-02T00:05:16;98835.09;;;3.45;100.00
31681;BME280;18281;51.364;9.566;2024-03-02T00:07:44;98835.09;;;3.44;100.00
31681;BME280;18281;51.364;9.566;2024-03-02T00:10:11;98831.75;;;3.42;100.00
31681;BME280;18281;51.364;9.566;2024-03-02T00:12:40;98834.41;;;3.40;100.00
31681;BME280;18281;51.364;9.566;2024-03-02T00:15:07;98824.22;;;3.35;100.00
31681;BME280;18281;51.364;9.566;2024-03-02T00:17:44;98824.38;;;3.32;100.00
31681;BME280;18281;51.364;9.566;2024-03-02T00:20:11;98822.63;;;3.33;100.00
31681;BME280;18281;51.364;9.566;2024-03-02T00:22:42;98830.31;;;3.34;100.00
31681;BME280;18281;51.364;9.566;2024-03-02T00:25:08;98826.34;;;3.27;100.00
31681;BME280;18281;51.364;9.566;2024-03-02T00:27:35;98828.09;;;3.27;100.00
31681;BME280;18281;51.364;9.566;2024-03-02T00:30:01;98830.81;;;3.23;100.00
31681;BME280;18281;51.364;9.566;2024-03-02T00:32:31;98830.94;;;3.20;100.00
31681;BME280;18281;51.364;9.566;2024-03-02T00:34:57;98830.19;;;3.18;100.00
31681;BME280;18281;51.364;9.566;2024-03-02T00:37:22;98837.97;;;3.18;100.00
31681;BME280;18281;51.364;9.566;2024-03-02T00:39:49;98837.25;;;3.15;100.00
31681;BME280;18281;51.364;9.566;2024-03-02T00:42:14;98837.25;;;3.15;100.00
31681;BME280;18281;51.364;9.566;2024-03-02T00:44:40;98832.41;;;3.07;100.00
31681;BME280;18281;51.364;9.566;2024-03-02T00:47:05;98834.09;;;3.08;100.00
31681;BME280;18281;51.364;9.566;2024-03-02T00:49:32;98833.94;;;3.11;100.00
31681;BME280;18281;51.364;9.566;2024-03-02T00:51:58;98841.88;;;3.08;100.00
31681;BME280;18281;51.364;9.566;2024-03-02T00:54:27;98834.09;;;3.08;100.00
31681;BME280;18281;51.364;9.566;2024-03-02T00:56:54;98839.28;;;3.08;100.00
31681;BME280;18281;51.364;9.566;2024-03-02T00:59:21;98836.81;;;3.05;100.00
31681;BME280;18281;51.364;9.566;2024-03-02T01:01:48;98835.97;;;3.04;100.00
31681;BME280;18281;51.364;9.566;2024-03-02T01:04:14;98837.72;;;3.04;100.00
31681;BME280;18281;51.364;9.566;2024-03-02T01:06:39;98837.00;;;3.00;100.00
31681;BME280;18281;51.364;9.566;2024-03-02T01:09:05;98837.91;;;2.99;100.00
31681;BME280;18281;51.364;9.566;2024-03-02T01:11:30;98834.41;;;3.00;100.00
31681;BME280;18281;51.364;9.566;2024-03-02T01:13:56;98834.34;;;3.02;100.00
31681;BME280;18281;51.364;9.566;2024-03-02T01:16:21;98829.38;;;2.97;100.00
31681;BME280;18281;51.364;9.566;2024-03-02T01:18:47;98835.53;;;2.95;100.00
31681;BME280;18281;51.364;9.566;2024-03-02T01:21:12;98832.03;;;2.96;100.00
31681;BME280;18281;51.364;9.566;2024-03-02T01:23:37;98826.88;;;2.94;100.00
31681;BME280;18281;51.364;9.566;2024-03-02T01:26:03;98821.91;;;2.89;100.00
31681;BME280;18281;51.364;9.566;2024-03-02T01:28:28;98816.72;;;2.89;100.00
31681;BME280;18281;51.364;9.566;2024-03-02T01:30:54;98815.94;;;2.87;100.00
31681;BME280;18281;51.364;9.566;2024-03-02T01:33:19;98814.13;;;2.89;100.00
31681;BME280;18281;51.364;9.566;2024-03-02T01:35:45;98816.88;;;2.86;100.00
31681;BME280;18281;51.364;9.566;2024-03-02T01:38:11;98816.88;;;2.86;100.00
31681;BME280;18281;51.364;9.566;2024-03-02T01:40:36;98818.59;;;2.86;100.00
31681;BME280;18281;51.364;9.566;2024-03-02T01:43:03;98816.88;;;2.86;100.00
31681;BME280;18281;51.364;9.566;2024-03-02T01:45:29;98816.16;;;2.83;100.00
31681;BME280;18281;51.364;9.566;2024-03-02T01:47:55;98811.13;;;2.80;100.00
31681;BME280;18281;51.364;9.566;2024-03-02T01:50:28;98808.53;;;2.80;100.00
31681;BME280;18281;51.364;9.566;2024-03-02T01:52:55;98804.31;;;2.77;100.00
31681;BME280;18281;51.364;9.566;2024-03-02T01:55:20;98801.78;;;2.76;100.00
31681;BME280;18281;51.364;9.566;2024-03-02T01:57:46;98799.22;;;2.74;100.00
31681;BME280;18281;51.364;9.566;2024-03-02T02:00:13;98802.88;;;2.70;100.00
31681;BME280;18281;51.364;9.566;2024-03-02T02:02:38;98793.28;;;2.72;100.00
31681;BME280;18281;51.364;9.566;2024-03-02T02:05:04;98788.28;;;2.67;100.00
31681;BME280;18281;51.364;9.566;2024-03-02T02:07:30;98795.22;;;2.67;100.00
31681;BME280;18281;51.364;9.566;2024-03-02T02:09:56;98794.44;;;2.65;100.00
31681;BME280;18281;51.364;9.566;2024-03-02T02:12:21;98793.53;;;2.66;100.00
31681;BME280;18281;51.364;9.566;2024-03-02T02:14:48;98783.44;;;2.60;100.00
31681;BME280;18281;51.364;9.566;2024-03-02T02:17:14;98799.00;;;2.60;100.00
31681;BME280;18281;51.364;9.566;2024-03-02T02:19:40;98793.81;;;2.60;100.00
31681;BME280;18281;51.364;9.566;2024-03-02T02:22:06;98795.63;;;2.58;100.00
31681;BME280;18281;51.364;9.566;2024-03-02T02:24:31;98786.16;;;2.57;100.00
31681;BME280;18281;51.364;9.566;2024-03-02T02:26:56;98790.44;;;2.58;100.00
31681;BME280;18281;51.364;9.566;2024-03-02T02:29:22;98796.59;;;2.55;100.00
31681;BME280;18281;51.364;9.566;2024-03-02T02:31:47;98781.03;;;2.55;100.00
31681;BME280;18281;51.364;9.566;2024-03-02T02:34:14;98783.84;;;2.50;100.00
31681;BME280;18281;51.364;9.566;2024-03-02T02:36:40;98785.38;;;2.54;100.00
31681;BME280;18281;51.364;9.566;2024-03-02T02:39:07;98777.78;;;2.50;100.00
31681;BME280;18281;51.364;9.566;2024-03-02T02:41:33;98774.44;;;2.48;100.00
31681;BME280;18281;51.364;9.566;2024-03-02T02:43:58;98781.31;;;2.49;100.00
31681;BME280;18281;51.364;9.566;2024-03-02T02:46:23;98776.97;;;2.49;100.00
31681;BME280;18281;51.364;9.566;2024-03-02T02:48:49;98779.72;;;2.45;100.00
31681;BME280;18281;51.364;9.566;2024-03-02T02:51:16;98768.41;;;2.47;100.00
31681;BME280;18281;51.364;9.566;2024-03-02T02:53:42;98772.97;;;2.42;100.00
31681;BME280;18281;51.364;9.566;2024-03-02T02:56:07;98765.28;;;2.39;100.00
31681;BME280;18281;51.364;9.566;2024-03-02T02:58:32;98764.59;;;2.35;100.00
31681;BME280;18281;51.364;9.566;2024-03-02T03:00:58;98762.84;;;2.36;100.00
31681;BME280;18281;51.364;9.566;2024-03-02T03:03:23;98759.44;;;2.35;100.00
31681;BME280;18281;51.364;9.566;2024-03-02T03:05:49;98766.25;;;2.36;100.00
31681;BME280;18281;51.364;9.566;2024-03-02T03:08:14;98769.13;;;2.30;100.00
31681;BME280;18281;51.364;9.566;2024-03-02T03:10:41;98765.81;;;2.27;100.00
31681;BME280;18281;51.364;9.566;2024-03-02T03:13:06;98759.66;;;2.29;100.00
31681;BME280;18281;51.364;9.566;2024-03-02T03:15:34;98766.78;;;2.24;100.00
31681;BME280;18281;51.364;9.566;2024-03-02T03:18:02;98768.41;;;2.27;100.00
31681;BME280;18281;51.364;9.566;2024-03-02T03:20:28;98769.38;;;2.24;100.00
31681;BME280;18281;51.364;9.566;2024-03-02T03:22:54;98766.97;;;2.19;100.00
31681;BME280;18281;51.364;9.566;2024-03-02T03:25:19;98772.16;;;2.19;100.00
31681;BME280;18281;51.364;9.566;2024-03-02T03:27:44;98767.88;;;2.18;100.00
31681;BME280;18281;51.364;9.566;2024-03-02T03:30:11;98768.84;;;2.16;100.00
31681;BME280;18281;51.364;9.566;2024-03-02T03:32:36;98768.13;;;2.12;100.00
31681;BME280;18281;51.364;9.566;2024-03-02T03:35:03;98767.22;;;2.13;100.00
31681;BME280;18281;51.364;9.566;2024-03-02T03:37:29;98761.25;;;2.11;100.00
31681;BME280;18281;51.364;9.566;2024-03-02T03:39:58;98763.06;;;2.09;100.00
31681;BME280;18281;51.364;9.566;2024-03-02T03:42:24;98759.00;;;2.03;100.00
31681;BME280;18281;51.364;9.566;2024-03-02T03:44:49;98766.03;;;2.00;100.00
31681;BME280;18281;51.364;9.566;2024-03-02T03:47:15;98765.25;;;1.98;100.00
31681;BME280;18281;51.364;9.566;2024-03-02T03:49:40;98768.69;;;1.98;100.00
31681;BME280;18281;51.364;9.566;2024-03-02T03:52:06;98771.44;;;1.94;100.00
31681;BME280;18281;51.364;9.566;2024-03-02T03:54:31;98766.34;;;1.92;100.00
31681;BME280;18281;51.364;9.566;2024-03-02T03:56:57;98766.34;;;1.92;100.00
31681;BME280;18281;51.364;9.566;2024-03-02T03:59:22;98764.03;;;1.84;100.00
31681;BME280;18281;51.364;9.566;2024-03-02T04:01:47;98764.78;;;1.88;100.00
31681;BME280;18281;51.364;9.566;2024-03-02T04:04:13;98767.56;;;1.83;100.00
31681;BME280;18281;51.364;9.566;2024-03-02T04:06:38;98766.63;;;1.84;100.00
31681;BME280;18281;51.364;9.566;2024-03-02T04:09:03;98774.66;;;1.78;100.00
31681;BME280;18281;51.364;9.566;2024-03-02T04:11:29;98781.63;;;1.76;100.00
31681;BME280;18281;51.364;9.566;2024-03-02T04:13:55;98776.44;;;1.76;100.00
31681;BME280;18281;51.364;9.566;2024-03-02T04:16:21;98768.88;;;1.71;100.00
31681;BME280;18281;51.364;9.566;2024-03-02T04:18:46;98770.66;;;1.69;100.00
31681;BME280;18281;51.364;9.566;2024-03-02T04:21:12;98766.50;;;1.65;100.00
31681;BME280;18281;51.364;9.566;2024-03-02T04:23:37;98770.78;;;1.66;100.00
31681;BME280;18281;51.364;9.566;2024-03-02T04:26:02;98767.59;;;1.60;100.00
31681;BME280;18281;51.364;9.566;2024-03-02T04:28:28;98767.53;;;1.61;100.00
31681;BME280;18281;51.364;9.566;2024-03-02T04:30:53;98764.13;;;1.61;100.00
31681;BME280;18281;51.364;9.566;2024-03-02T04:33:19;98770.31;;;1.57;100.00
31681;BME280;18281;51.364;9.566;2024-03-02T04:35:44;98775.50;;;1.57;100.00
31681;BME280;18281;51.364;9.566;2024-03-02T04:38:09;98772.03;;;1.56;100.00
31681;BME280;18281;51.364;9.566;2024-03-02T04:40:35;98777.47;;;1.50;100.00
31681;BME280;18281;51.364;9.566;2024-03-02T04:43:00;98778.31;;;1.50;100.00
31681;BME280;18281;51.364;9.566;2024-03-02T04:45:25;98784.50;;;1.46;100.00
31681;BME280;18281;51.364;9.566;2024-03-02T04:47:51;98793.16;;;1.45;100.00
31681;BME280;18281;51.364;9.566;2024-03-02T04:50:16;98791.44;;;1.44;100.00
31681;BME280;18281;51.364;9.566;2024-03-02T04:52:42;98783.75;;;1.43;100.00
31681;BME280;18281;51.364;9.566;2024-03-02T04:55:07;98786.41;;;1.41;100.00
31681;BME280;18281;51.364;9.566;2024-03-02T04:57:50;98795.13;;;1.38;100.00
31681;BME280;18281;51.364;9.566;2024-03-02T05:00:16;98791.69;;;1.38;100.00
31681;BME280;18281;51.364;9.566;2024-03-02T05:02:42;98787.34;;;1.38;100.00
31681;BME280;18281;51.364;9.566;2024-03-02T05:05:07;98790.13;;;1.34;100.00
31681;BME280;18281;51.364;9.566;2024-03-02T05:07:33;98787.59;;;1.32;100.00
31681;BME280;18281;51.364;9.566;2024-03-02T05:09:58;98794.41;;;1.35;100.00
31681;BME280;18281;51.364;9.566;2024-03-02T05:12:24;98794.63;;;1.29;100.00
31681;BME280;18281;51.364;9.566;2024-03-02T05:15:12;98791.22;;;1.28;100.00
31681;BME280;18281;51.364;9.566;2024-03-02T05:17:37;98791.03;;;1.33;100.00
31681;BME280;18281;51.364;9.566;2024-03-02T05:20:04;98786.66;;;1.35;100.00
31681;BME280;18281;51.364;9.566;2024-03-02T05:22:30;98787.53;;;1.34;100.00
31681;BME280;18281;51.364;9.566;2024-03-02T05:24:56;98795.41;;;1.31;100.00
31681;BME280;18281;51.364;9.566;2024-03-02T05:27:22;98785.91;;;1.31;100.00
31681;BME280;18281;51.364;9.566;2024-03-02T05:29:48;98787.88;;;1.25;100.00
31681;BME280;18281;51.364;9.566;2024-03-02T05:32:14;98790.47;;;1.25;100.00
31681;BME280;18281;51.364;9.566;2024-03-02T05:34:39;98793.88;;;1.25;100.00
31681;BME280;18281;51.364;9.566;2024-03-02T05:37:04;98800.69;;;1.28;100.00
31681;BME280;18281;51.364;9.566;2024-03-02T05:39:30;98801.56;;;1.28;100.00
31681;BME280;18281;51.364;9.566;2024-03-02T05:41:55;98802.38;;;1.29;100.00
31681;BME280;18281;51.364;9.566;2024-03-02T05:44:21;98803.41;;;1.25;100.00
31681;BME280;18281;51.364;9.566;2024-03-02T05:46:47;98816.19;;;1.28;100.00
31681;BME280;18281;51.364;9.566;2024-03-02T05:49:13;98817.91;;;1.29;100.00
31681;BME280;18281;51.364;9.566;2024-03-02T05:51:38;98805.97;;;1.25;100.00
31681;BME280;18281;51.364;9.566;2024-03-02T05:54:03;98811.16;;;1.25;100.00
31681;BME280;18281;51.364;9.566;2024-03-02T05:56:29;98812.84;;;1.26;100.00
31681;BME280;18281;51.364;9.566;2024-03-02T05:58:54;98817.22;;;1.24;100.00
31681;BME280;18281;51.364;9.566;2024-03-02T06:04:04;98823.41;;;1.19;100.00
31681;BME280;18281;51.364;9.566;2024-03-02T06:06:29;98820.94;;;1.16;100.00
31681;BME280;18281;51.364;9.566;2024-03-02T06:08:54;98827.00;;;1.15;100.00
31681;BME280;18281;51.364;9.566;2024-03-02T06:11:20;98816.72;;;1.14;100.00
31681;BME280;18281;51.364;9.566;2024-03-02T06:13:45;98819.28;;;1.14;100.00
31681;BME280;18281;51.364;9.566;2024-03-02T06:16:11;98818.56;;;1.10;100.00
31681;BME280;18281;51.364;9.566;2024-03-02T06:18:36;98834.06;;;1.10;100.00
31681;BME280;18281;51.364;9.566;2024-03-02T06:21:02;98837.53;;;1.09;100.00
31681;BME280;18281;51.364;9.566;2024-03-02T06:23:28;98841.03;;;1.08;100.00
31681;BME280;18281;51.364;9.566;2024-03-02T06:25:53;98850.69;;;1.03;100.00
31681;BME280;18281;51.364;9.566;2024-03-02T06:28:19;98847.19;;;1.04;100.00
31681;BME280;18281;51.364;9.566;2024-03-02T06:30:44;98845.47;;;1.04;100.00
31681;BME280;18281;51.364;9.566;2024-03-02T06:33:10;98843.84;;;1.02;100.00
31681;BME280;18281;51.364;9.566;2024-03-02T06:35:36;98839.50;;;1.02;100.00
31681;BME280;18281;51.364;9.566;2024-03-02T06:38:01;98843.00;;;1.01;100.00
31681;BME280;18281;51.364;9.566;2024-03-02T06:40:27;98849.34;;;2.75;100.00
31681;BME280;18281;51.364;9.566;2024-03-02T06:42:52;98847.00;;;3.49;100.00
31681;BME280;18281;51.364;9.566;2024-03-02T06:45:18;98851.72;;;3.60;100.00
31681;BME280;18281;51.364;9.566;2024-03-02T06:47:43;98856.50;;;3.30;100.00
31681;BME280;18281;51.364;9.566;2024-03-02T06:50:09;98863.25;;;2.93;100.00
31681;BME280;18281;51.364;9.566;2024-03-02T06:52:35;98865.41;;;2.62;100.00
31681;BME280;18281;51.364;9.566;2024-03-02T06:55:00;98862.84;;;2.61;100.00
31681;BME280;18281;51.364;9.566;2024-03-02T06:57:26;98867.78;;;2.46;100.00
31681;BME280;18281;51.364;9.566;2024-03-02T06:59:51;98874.16;;;2.58;100.00
31681;BME280;18281;51.364;9.566;2024-03-02T07:02:20;98870.09;;;2.52;100.00
31681;BME280;18281;51.364;9.566;2024-03-02T07:04:45;98875.16;;;2.55;100.00
31681;BME280;18281;51.364;9.566;2024-03-02T07:07:11;98881.63;;;2.45;100.00
31681;BME280;18281;51.364;9.566;2024-03-02T07:09:36;98873.00;;;2.22;100.00
31681;BME280;18281;51.364;9.566;2024-03-02T07:12:02;98875.28;;;2.08;100.00
31681;BME280;18281;51.364;9.566;2024-03-02T07:14:27;98870.47;;;1.99;100.00
31681;BME280;18281;51.364;9.566;2024-03-02T07:17:12;98870.81;;;1.90;100.00
31681;BME280;18281;51.364;9.566;2024-03-02T07:19:38;98883.00;;;1.87;100.00
31681;BME280;18281;51.364;9.566;2024-03-02T07:22:07;98876.25;;;1.83;100.00
31681;BME280;18281;51.364;9.566;2024-03-02T07:24:43;98887.56;;;1.81;100.00
31681;BME280;18281;51.364;9.566;2024-03-02T07:27:09;98876.41;;;1.79;100.00
31681;BME280;18281;51.364;9.566;2024-03-02T07:29:35;98887.63;;;1.79;100.00
31681;BME280;18281;51.364;9.566;2024-03-02T07:32:00;98891.84;;;1.82;100.00
31681;BME280;18281;51.364;9.566;2024-03-02T07:34:26;98903.84;;;1.83;100.00
31681;BME280;18281;51.364;9.566;2024-03-02T07:36:51;98909.22;;;1.78;100.00
31681;BME280;18281;51.364;9.566;2024-03-02T07:39:17;98910.56;;;1.88;100.00
31681;BME280;18281;51.364;9.566;2024-03-02T07:41:42;98895.94;;;1.87;100.00
31681;BME280;18281;51.364;9.566;2024-03-02T07:44:08;98906.97;;;1.93;100.00
31681;BME280;18281;51.364;9.566;2024-03-02T07:46:34;98900.81;;;1.95;100.00
31681;BME280;18281;51.364;9.566;2024-03-02T07:48:59;98906.63;;;2.02;100.00
31681;BME280;18281;51.364;9.566;2024-03-02T07:51:25;98905.34;;;2.12;100.00
31681;BME280;18281;51.364;9.566;2024-03-02T07:53:51;98913.00;;;2.15;100.00
31681;BME280;18281;51.364;9.566;2024-03-02T07:56:16;98913.63;;;2.22;100.00
31681;BME280;18281;51.364;9.566;2024-03-02T07:58:48;98911.19;;;2.17;100.00
31681;BME280;18281;51.364;9.566;2024-03-02T08:01:14;98913.41;;;2.27;100.00
31681;BME280;18281;51.364;9.566;2024-03-02T08:03:40;98911.72;;;2.26;100.00
31681;BME280;18281;51.364;9.566;2024-03-02T08:06:05;98916.84;;;2.27;100.00
31681;BME280;18281;51.364;9.566;2024-03-02T08:08:31;98922.09;;;2.26;100.00
31681;BME280;18281;51.364;9.566;2024-03-02T08:10:57;98914.09;;;2.32;100.00
31681;BME280;18281;51.364;9.566;2024-03-02T08:13:22;98914.84;;;2.34;100.00
31681;BME280;18281;51.364;9.566;2024-03-02T08:15:48;98916.50;;;2.36;100.00
31681;BME280;18281;51.364;9.566;2024-03-02T08:18:13;98920.72;;;2.39;100.00
31681;BME280;18281;51.364;9.566;2024-03-02T08:20:38;98913.00;;;2.37;100.00
31681;BME280;18281;51.364;9.566;2024-03-02T08:23:05;98921.22;;;2.49;100.00
31681;BME280;18281;51.364;9.566;2024-03-02T08:25:30;98921.06;;;2.52;100.00
31681;BME280;18281;51.364;9.566;2024-03-02T08:27:56;98916.13;;;2.46;100.00
31681;BME280;18281;51.364;9.566;2024-03-02T08:30:21;98920.19;;;2.53;100.00
31681;BME280;18281;51.364;9.566;2024-03-02T08:32:47;98915.03;;;2.51;100.00
31681;BME280;18281;51.364;9.566;2024-03-02T08:35:13;98914.03;;;2.55;100.00
31681;BME280;18281;51.364;9.566;2024-03-02T08:37:39;98915.69;;;2.57;100.00
31681;BME280;18281;51.364;9.566;2024-03-02T08:40:06;98919.09;;;2.59;100.00
31681;BME280;18281;51.364;9.566;2024-03-02T08:42:32;98909.47;;;2.61;100.00
31681;BME280;18281;51.364;9.566;2024-03-02T08:44:58;98912.03;;;2.62;100.00
31681;BME280;18281;51.364;9.566;2024-03-02T08:47:28;98907.09;;;2.99;100.00
31681;BME280;18281;51.364;9.566;2024-03-02T08:49:53;98915.09;;;2.93;100.00
31681;BME280;18281;51.364;9.566;2024-03-02T08:52:19;98913.03;;;3.01;100.00
31681;BME280;18281;51.364;9.566;2024-03-02T08:54:44;98925.09;;;3.02;100.00
31681;BME280;18281;51.364;9.566;2024-03-02T08:57:09;98909.16;;;3.11;100.00
31681;BME280;18281;51.364;9.566;2024-03-02T08:59:35;98911.34;;;3.20;100.00
31681;BME280;18281;51.364;9.566;2024-03-02T09:02:03;98911.22;;;3.23;100.00
31681;BME280;18281;51.364;9.566;2024-03-02T09:04:29;98915.50;;;3.25;100.00
31681;BME280;18281;51.364;9.566;2024-03-02T09:06:54;98903.31;;;3.27;100.00
31681;BME280;18281;51.364;9.566;2024-03-02T09:09:19;98909.34;;;3.27;100.00
31681;BME280;18281;51.364;9.566;2024-03-02T09:11:46;98906.56;;;3.32;100.00
31681;BME280;18281;51.364;9.566;2024-03-02T09:14:12;98904.59;;;3.37;100.00
31681;BME280;18281;51.364;9.566;2024-03-02T09:16:37;98904.47;;;3.40;100.00
31681;BME280;18281;51.364;9.566;2024-03-02T09:19:03;98912.13;;;3.43;100.00
31681;BME280;18281;51.364;9.566;2024-03-02T09:21:28;98907.91;;;3.41;100.00
31681;BME280;18281;51.364;9.566;2024-03-02T09:23:55;98913.63;;;3.49;100.00
31681;BME280;18281;51.364;9.566;2024-03-02T09:26:20;98911.47;;;3.59;100.00
31681;BME280;18281;51.364;9.566;2024-03-02T09:28:46;98908.09;;;3.57;100.00
31681;BME280;18281;51.364;9.566;2024-03-02T09:31:11;98914.84;;;3.61;100.00
31681;BME280;18281;51.364;9.566;2024-03-02T09:33:37;98913.72;;;3.66;100.00
31681;BME280;18281;51.364;9.566;2024-03-02T09:36:04;98913.38;;;3.74;100.00
31681;BME280;18281;51.364;9.566;2024-03-02T09:38:32;98924.81;;;3.70;100.00
31681;BME280;18281;51.364;9.566;2024-03-02T09:40:59;98920.91;;;3.80;100.00
31681;BME280;18281;51.364;9.566;2024-03-02T09:43:26;98916.47;;;3.82;100.00
31681;BME280;18281;51.364;9.566;2024-03-02T09:45:52;98918.09;;;3.85;100.00
31681;BME280;18281;51.364;9.566;2024-03-02T09:48:17;98917.75;;;3.93;100.00
31681;BME280;18281;51.364;9.566;2024-03-02T09:50:43;98922.66;;;3.99;100.00
31681;BME280;18281;51.364;9.566;2024-03-02T09:53:10;98927.78;;;4.00;100.00
31681;BME280;18281;51.364;9.566;2024-03-02T09:55:47;98924.31;;;4.00;100.00
31681;BME280;18281;51.364;9.566;2024-03-02T09:58:12;98931.22;;;4.01;100.00
31681;BME280;18281;51.364;9.566;2024-03-02T10:00:37;98928.34;;;4.07;100.00
31681;BME280;18281;51.364;9.566;2024-03-02T10:03:03;98929.81;;;4.13;100.00
31681;BME280;18281;51.364;9.566;2024-03-02T10:05:30;98924.38;;;4.17;100.00
31681;BME280;18281;51.364;9.566;2024-03-02T10:08:02;98922.66;;;4.18;100.00
31681;BME280;18281;51.364;9.566;2024-03-02T10:10:38;98923.31;;;4.21;100.00
31681;BME280;18281;51.364;9.566;2024-03-02T10:13:11;98923.97;;;4.27;100.00
31681;BME280;18281;51.364;9.566;2024-03-02T10:15:39;98915.34;;;4.26;100.00
31681;BME280;18281;51.364;9.566;2024-03-02T10:18:11;98918.69;;;4.28;100.00
31681;BME280;18281;51.364;9.566;2024-03-02T10:20:38;98924.44;;;4.35;100.00
31681;BME280;18281;51.364;9.566;2024-03-02T10:23:16;98921.63;;;4.39;100.00
31681;BME280;18281;51.364;9.566;2024-03-02T10:25:43;98922.47;;;4.40;100.00
31681;BME280;18281;51.364;9.566;2024-03-02T10:28:09;98922.34;;;4.43;100.00
31681;BME280;18281;51.364;9.566;2024-03-02T10:30:35;98933.69;;;5.30;100.00
31681;BME280;18281;51.364;9.566;2024-03-02T10:33:02;98924.56;;;5.89;100.00
31681;BME280;18281;51.364;9.566;2024-03-02T10:35:27;98922.22;;;6.33;100.00
31681;BME280;18281;51.364;9.566;2024-03-02T10:37:53;98921.34;;;6.64;100.00
31681;BME280;18281;51.364;9.566;2024-03-02T10:40:22;98917.91;;;6.32;100.00
31681;BME280;18281;51.364;9.566;2024-03-02T10:42:52;98934.00;;;6.08;100.00
31681;BME280;18281;51.364;9.566;2024-03-02T10:45:19;98926.84;;;5.96;100.00
31681;BME280;18281;51.364;9.566;2024-03-02T10:47:46;98934.22;;;5.87;100.00
31681;BME280;18281;51.364;9.566;2024-03-02T10:50:12;98926.25;;;5.90;100.00
31681;BME280;18281;51.364;9.566;2024-03-02T10:52:37;98933.03;;;5.77;100.00
31681;BME280;18281;51.364;9.566;2024-03-02T10:55:05;98932.25;;;5.75;100.00
31681;BME280;18281;51.364;9.566;2024-03-02T11:00:15;98924.78;;;5.69;100.00
31681;BME280;18281;51.364;9.566;2024-03-02T11:02:50;98919.16;;;5.77;100.00
31681;BME280;18281;51.364;9.566;2024-03-02T11:05:26;98912.13;;;5.95;100.00
31681;BME280;18281;51.364;9.566;2024-03-02T11:08:00;98906.06;;;6.10;100.00
31681;BME280;18281;51.364;9.566;2024-03-02T11:10:28;98915.50;;;6.29;100.00
31681;BME280;18281;51.364;9.566;2024-03-02T11:13:00;98904.81;;;6.49;100.00
31681;BME280;18281;51.364;9.566;2024-03-02T11:15:27;98909.84;;;6.52;100.00
31681;BME280;18281;51.364;9.566;2024-03-02T11:17:53;98910.56;;;6.54;100.00
31681;BME280;18281;51.364;9.566;2024-03-02T11:20:19;98911.41;;;6.71;100.00
31681;BME280;18281;51.364;9.566;2024-03-02T11:22:46;98904.94;;;6.93;100.00
31681;BME280;18281;51.364;9.566;2024-03-02T11:25:27;98901.84;;;7.02;100.00
31681;BME280;18281;51.364;9.566;2024-03-02T11:33:06;98892.25;;;7.46;100.00
31681;BME280;18281;51.364;9.566;2024-03-02T11:35:36;98886.22;;;7.60;100.00
31681;BME280;18281;51.364;9.566;2024-03-02T11:38:02;98887.91;;;7.61;100.00
31681;BME280;18281;51.364;9.566;2024-03-02T11:40:34;98884.41;;;7.89;100.00
31681;BME280;18281;51.364;9.566;2024-03-02T11:43:02;98881.78;;;8.03;100.00
31681;BME280;18281;51.364;9.566;2024-03-02T11:45:27;98872.41;;;7.99;100.00
31681;BME280;18281;51.364;9.566;2024-03-02T11:47:59;98878.28;;;8.17;99.08
31681;BME280;18281;51.364;9.566;2024-03-02T11:50:47;98878.72;;;8.24;98.51
31681;BME280;18281;51.364;9.566;2024-03-02T11:53:14;98873.47;;;8.38;94.76
31681;BME280;18281;51.364;9.566;2024-03-02T11:55:47;98875.06;;;8.41;94.42
31681;BME280;18281;51.364;9.566;2024-03-02T11:58:16;98864.38;;;8.44;94.26
31681;BME280;18281;51.364;9.566;2024-03-02T12:00:55;98870.16;;;8.49;93.98
31681;BME280;18281;51.364;9.566;2024-03-02T12:03:25;98862.03;;;8.67;93.10
31681;BME280;18281;51.364;9.566;2024-03-02T12:05:55;98858.09;;;8.87;91.76
31681;BME280;18281;51.364;9.566;2024-03-02T12:08:20;98865.63;;;8.91;90.63
31681;BME280;18281;51.364;9.566;2024-03-02T12:11:00;98844.47;;;8.82;93.11
31681;BME280;18281;51.364;9.566;2024-03-02T12:13:32;98857.88;;;8.77;92.70
31681;BME280;18281;51.364;9.566;2024-03-02T12:16:00;98857.13;;;8.75;90.35
31681;BME280;18281;51.364;9.566;2024-03-02T12:18:25;98858.53;;;8.94;91.66
31681;BME280;18281;51.364;9.566;2024-03-02T12:20:54;98852.97;;;8.98;91.85
31681;BME280;18281;51.364;9.566;2024-03-02T12:23:26;98851.63;;;8.93;92.21
31681;BME280;18281;51.364;9.566;2024-03-02T12:25:51;98853.19;;;8.95;93.52
31681;BME280;18281;51.364;9.566;2024-03-02T12:28:17;98857.06;;;9.02;93.58
31681;BME280;18281;51.364;9.566;2024-03-02T12:30:42;98838.22;;;9.10;93.48
31681;BME280;18281;51.364;9.566;2024-03-02T12:33:10;98831.09;;;9.12;93.74
31681;BME280;18281;51.364;9.566;2024-03-02T12:35:36;98829.84;;;9.31;92.89
31681;BME280;18281;51.364;9.566;2024-03-02T12:38:01;98833.81;;;9.23;92.61
31681;BME280;18281;51.364;9.566;2024-03-02T12:40:26;98828.69;;;9.35;93.51
31681;BME280;18281;51.364;9.566;2024-03-02T12:42:52;98820.38;;;9.41;91.12
31681;BME280;18281;51.364;9.566;2024-03-02T12:45:17;98818.81;;;9.51;90.49
31681;BME280;18281;51.364;9.566;2024-03-02T12:47:48;98826.00;;;9.61;90.61
31681;BME280;18281;51.364;9.566;2024-03-02T12:50:14;98817.59;;;9.81;87.51
31681;BME280;18281;51.364;9.566;2024-03-02T12:52:40;98811.91;;;9.87;86.67
31681;BME280;18281;51.364;9.566;2024-03-02T12:55:05;98815.59;;;9.85;86.94
31681;BME280;18281;51.364;9.566;2024-03-02T12:57:32;98806.34;;;9.92;85.54
31681;BME280;18281;51.364;9.566;2024-03-02T12:59:59;98808.00;;;10.17;81.36
31681;BME280;18281;51.364;9.566;2024-03-02T13:02:29;98812.94;;;10.22;80.29
31681;BME280;18281;51.364;9.566;2024-03-02T13:04:55;98804.09;;;10.23;79.53
31681;BME280;18281;51.364;9.566;2024-03-02T13:07:23;98798.53;;;10.28;81.02